Time;durP1;ratioP1;P1;durP2;ratioP2;P2;SDS_P1;SDS_P2;PMS_P1;PMS_P2;Temp;Humidity;BMP_temperature;BMP_pressure;BME280_temperature;BME280_humidity;BME280_pressure;Samples;Min_cycle;Max_cycle;Signal;HPM_P1;HPM_P2
2022/04/23 00:00:22;;;;;;;9.95;5.72;;;;;;;;;;5076743;28;20048;-71
2022/04/23 00:02:48;;;;;;;10.38;6.30;;;;;;;;;;5069886;28;20043;-71
2022/04/23 00:05:15;;;;;;;11.20;6.22;;;;;;;;;;5061700;28;20069;-71
2022/04/23 00:07:41;;;;;;;8.98;5.70;;;;;;;;;;5089256;28;20044;-71
2022/04/23 00:10:08;;;;;;;11.13;6.05;;;;;;;;;;5078871;28;20040;-72
2022/04/23 00:12:35;;;;;;;13.68;6.32;;;;;;;;;;5069780;28;20044;-71
2022/04/23 00:15:01;;;;;;;13.98;6.22;;;;;;;;;;5076010;28;20043;-72
2022/04/23 00:17:28;;;;;;;15.55;7.55;;;;;;;;;;5074053;28;20051;-72
2022/04/23 00:19:54;;;;;;;8.43;5.60;;;;;;;;;;5074054;28;20035;-72
2022/04/23 00:22:20;;;;;;;9.88;6.38;;;;;;;;;;5053899;28;20501;-72
2022/04/23 00:24:46;;;;;;;9.65;6.22;;;;;;;;;;5074160;28;20040;-71
2022/04/23 00:27:12;;;;;;;8.77;6.13;;;;;;;;;;5077236;28;20032;-72
2022/04/23 00:29:39;;;;;;;9.02;6.45;;;;;;;;;;5079645;28;20044;-72
2022/04/23 00:32:06;;;;;;;8.98;5.45;;;;;;;;;;5069963;28;20038;-72
2022/04/23 00:34:32;;;;;;;11.90;6.05;;;;;;;;;;5077855;28;20034;-71
2022/04/23 00:36:59;;;;;;;9.63;6.57;;;;;;;;;;5054898;28;20464;-71
2022/04/23 00:39:25;;;;;;;8.27;6.05;;;;;;;;;;5054366;28;20551;-71
2022/04/23 00:41:52;;;;;;;8.15;6.22;;;;;;;;;;5084927;28;20377;-72
2022/04/23 00:44:18;;;;;;;12.20;6.75;;;;;;;;;;5081104;28;20032;-72
2022/04/23 00:46:45;;;;;;;8.85;5.93;;;;;;;;;;5071285;28;20097;-71
2022/04/23 00:49:12;;;;;;;9.00;5.90;;;;;;;;;;5065681;28;20067;-71
2022/04/23 00:51:41;;;;;;;12.48;6.45;;;;;;;;;;5077431;28;20106;-72
2022/04/23 00:54:08;;;;;;;10.05;7.28;;;;;;;;;;5076326;28;20223;-71
2022/04/23 00:56:35;;;;;;;10.77;6.78;;;;;;;;;;5063764;28;20119;-71
2022/04/23 00:59:03;;;;;;;14.45;7.20;;;;;;;;;;5072999;28;20608;-71
2022/04/23 01:01:30;;;;;;;11.82;7.22;;;;;;;;;;5064217;28;20037;-71
2022/04/23 01:03:57;;;;;;;9.77;6.90;;;;;;;;;;5053363;28;20066;-72
2022/04/23 01:06:24;;;;;;;8.77;6.85;;;;;;;;;;5043761;28;20083;-72
2022/04/23 01:08:51;;;;;;;9.52;7.32;;;;;;;;;;5074098;28;20032;-72
2022/04/23 01:11:17;;;;;;;10.05;6.72;;;;;;;;;;5075686;28;20098;-72
2022/04/23 01:13:44;;;;;;;12.07;7.25;;;;;;;;;;5079679;28;20421;-72
2022/04/23 01:16:10;;;;;;;11.68;6.72;;;;;;;;;;5076729;28;20466;-71
2022/04/23 01:18:40;;;;;;;11.27;7.07;;;;;;;;;;5055640;28;20044;-72
2022/04/23 01:21:09;;;;;;;11.07;7.13;;;;;;;;;;5074099;28;20332;-72
2022/04/23 01:23:36;;;;;;;9.10;6.75;;;;;;;;;;5079137;28;20041;-72
2022/04/23 01:26:04;;;;;;;12.65;7.45;;;;;;;;;;5080804;28;20059;-72
2022/04/23 01:28:31;;;;;;;13.60;7.25;;;;;;;;;;5075321;28;20040;-72
2022/04/23 01:30:57;;;;;;;9.38;7.25;;;;;;;;;;5082766;28;20119;-71
2022/04/23 01:33:24;;;;;;;12.07;8.60;;;;;;;;;;5071136;28;20040;-71
2022/04/23 01:35:52;;;;;;;17.80;8.90;;;;;;;;;;5052687;28;20048;-72
2022/04/23 01:38:18;;;;;;;11.15;7.43;;;;;;;;;;5083116;28;20078;-71
2022/04/23 01:40:44;;;;;;;16.27;8.27;;;;;;;;;;5077075;28;20501;-71
2022/04/23 01:43:10;;;;;;;11.77;7.75;;;;;;;;;;5061470;28;20802;-71
2022/04/23 01:45:37;;;;;;;11.07;7.80;;;;;;;;;;5067452;28;20044;-71
2022/04/23 01:48:03;;;;;;;10.48;8.05;;;;;;;;;;5033975;28;20044;-72
2022/04/23 01:50:29;;;;;;;13.98;8.02;;;;;;;;;;5068218;28;20041;-71
2022/04/23 01:52:56;;;;;;;11.35;8.10;;;;;;;;;;5075037;28;20036;-71
2022/04/23 01:55:22;;;;;;;14.70;8.30;;;;;;;;;;5059862;28;20083;-72
2022/04/23 01:57:48;;;;;;;12.32;8.07;;;;;;;;;;5070245;28;20055;-72
2022/04/23 02:00:15;;;;;;;11.68;8.52;;;;;;;;;;5054905;28;20052;-72
2022/04/23 02:02:41;;;;;;;14.43;9.07;;;;;;;;;;5070763;28;20035;-72
2022/04/23 02:05:08;;;;;;;17.52;8.93;;;;;;;;;;5069382;28;20040;-72
2022/04/23 02:07:52;;;;;;;13.90;7.72;;;;;;;;;;5078253;28;20032;-72
2022/04/23 02:10:18;;;;;;;12.77;8.85;;;;;;;;;;5079393;28;20460;-72
2022/04/23 02:12:47;;;;;;;11.65;8.45;;;;;;;;;;5044673;28;20127;-72
2022/04/23 02:15:15;;;;;;;11.88;8.13;;;;;;;;;;5055702;28;20048;-71
2022/04/23 02:17:42;;;;;;;13.55;9.10;;;;;;;;;;5060394;28;20042;-72
2022/04/23 02:20:13;;;;;;;11.60;8.63;;;;;;;;;;5065843;28;20048;-72
2022/04/23 02:22:39;;;;;;;13.52;10.50;;;;;;;;;;5057464;28;20047;-72
2022/04/23 02:25:06;;;;;;;12.80;8.63;;;;;;;;;;5066976;28;20440;-72
2022/04/23 02:27:48;;;;;;;13.27;9.40;;;;;;;;;;5071335;28;20052;-72
2022/04/23 02:30:16;;;;;;;15.48;8.77;;;;;;;;;;5073894;28;20048;-72
2022/04/23 02:32:42;;;;;;;15.43;9.52;;;;;;;;;;5073166;28;20048;-72
2022/04/23 02:35:09;;;;;;;12.93;8.98;;;;;;;;;;5052651;28;20040;-72
2022/04/23 02:37:35;;;;;;;16.08;9.60;;;;;;;;;;5057477;28;20044;-72
2022/04/23 02:40:03;;;;;;;14.00;9.65;;;;;;;;;;5056823;28;20059;-72
2022/04/23 02:42:29;;;;;;;11.30;9.05;;;;;;;;;;5065278;28;20375;-72
2022/04/23 02:44:58;;;;;;;12.65;9.75;;;;;;;;;;5074072;28;20437;-72
2022/04/23 02:47:24;;;;;;;12.50;9.75;;;;;;;;;;5068586;28;20045;-72
2022/04/23 02:49:51;;;;;;;17.17;10.07;;;;;;;;;;5059701;28;20032;-72
2022/04/23 02:52:17;;;;;;;16.27;11.25;;;;;;;;;;5061992;28;20098;-71
2022/04/23 02:54:43;;;;;;;12.93;9.63;;;;;;;;;;5074162;28;20438;-72
2022/04/23 02:57:11;;;;;;;12.63;9.40;;;;;;;;;;5072452;28;20063;-72
2022/04/23 02:59:37;;;;;;;13.65;9.40;;;;;;;;;;5069565;28;20044;-72
2022/04/23 03:02:03;;;;;;;13.27;9.90;;;;;;;;;;5055713;28;20094;-72
2022/04/23 03:04:29;;;;;;;17.00;10.60;;;;;;;;;;5074771;28;20115;-72
2022/04/23 03:06:56;;;;;;;14.32;10.05;;;;;;;;;;5068568;28;20080;-72
2022/04/23 03:09:22;;;;;;;14.82;10.10;;;;;;;;;;5078029;28;20048;-72
2022/04/23 03:11:48;;;;;;;13.10;9.75;;;;;;;;;;5062380;28;20043;-71
2022/04/23 03:14:15;;;;;;;14.90;10.93;;;;;;;;;;5058835;28;20045;-72
2022/04/23 03:16:42;;;;;;;16.02;10.50;;;;;;;;;;5063648;28;20086;-72
2022/04/23 03:19:08;;;;;;;13.52;10.48;;;;;;;;;;5061129;28;20042;-72
2022/04/23 03:21:34;;;;;;;15.18;9.98;;;;;;;;;;5089936;28;20477;-72
2022/04/23 03:24:00;;;;;;;20.35;11.20;;;;;;;;;;5089084;28;20059;-72
2022/04/23 03:26:26;;;;;;;15.38;10.88;;;;;;;;;;5089634;28;20040;-71
2022/04/23 03:28:52;;;;;;;13.02;10.15;;;;;;;;;;5048795;28;20394;-72
2022/04/23 03:31:18;;;;;;;14.43;10.10;;;;;;;;;;5057732;28;20497;-72
2022/04/23 03:33:45;;;;;;;14.77;9.65;;;;;;;;;;5058986;28;20048;-72
2022/04/23 03:36:11;;;;;;;13.80;10.27;;;;;;;;;;5062274;28;20166;-71
2022/04/23 03:38:37;;;;;;;15.27;10.40;;;;;;;;;;5053255;28;20044;-72
2022/04/23 03:41:04;;;;;;;14.43;10.23;;;;;;;;;;5080111;28;20061;-72
2022/04/23 03:43:32;;;;;;;12.63;9.63;;;;;;;;;;5070667;28;20098;-72
2022/04/23 03:45:58;;;;;;;19.45;10.82;;;;;;;;;;5062214;28;20092;-72
2022/04/23 03:48:24;;;;;;;15.10;9.65;;;;;;;;;;5068308;28;20040;-72
2022/04/23 03:50:50;;;;;;;14.45;9.48;;;;;;;;;;5057222;28;20096;-72
2022/04/23 03:53:16;;;;;;;18.05;11.10;;;;;;;;;;5078795;28;20487;-72
2022/04/23 03:55:42;;;;;;;12.32;9.93;;;;;;;;;;5076638;28;20047;-72
2022/04/23 03:58:09;;;;;;;14.75;10.10;;;;;;;;;;5086332;28;20044;-72
2022/04/23 04:00:35;;;;;;;13.85;9.70;;;;;;;;;;5073839;28;20087;-72
2022/04/23 04:03:01;;;;;;;13.32;10.57;;;;;;;;;;5074813;28;20040;-72
2022/04/23 04:05:28;;;;;;;13.00;9.55;;;;;;;;;;5060737;28;20048;-72
2022/04/23 04:07:55;;;;;;;15.88;9.82;;;;;;;;;;5069110;28;20036;-72
2022/04/23 04:10:22;;;;;;;14.63;9.93;;;;;;;;;;5055845;28;20135;-72
2022/04/23 04:12:49;;;;;;;13.15;9.85;;;;;;;;;;5063239;28;20128;-72
2022/04/23 04:15:16;;;;;;;13.77;8.88;;;;;;;;;;5087893;28;20131;-72
2022/04/23 04:17:43;;;;;;;11.40;8.95;;;;;;;;;;5078944;28;20036;-72
2022/04/23 04:20:12;;;;;;;12.30;9.05;;;;;;;;;;5052548;28;20045;-71
2022/04/23 04:22:39;;;;;;;12.30;8.95;;;;;;;;;;5071969;28;20106;-72
2022/04/23 04:25:06;;;;;;;10.25;8.43;;;;;;;;;;5072537;28;20048;-72
2022/04/23 04:27:32;;;;;;;15.68;10.38;;;;;;;;;;5060417;28;20028;-72
2022/04/23 04:29:59;;;;;;;11.75;9.30;;;;;;;;;;5088610;28;20047;-72
2022/04/23 04:32:25;;;;;;;12.57;9.82;;;;;;;;;;5068888;28;20039;-72
2022/04/23 04:34:51;;;;;;;13.90;10.68;;;;;;;;;;5036875;28;20036;-71
2022/04/23 04:37:18;;;;;;;13.27;9.35;;;;;;;;;;5068440;28;20382;-72
2022/04/23 04:39:44;;;;;;;14.10;9.48;;;;;;;;;;5088990;28;20125;-72
2022/04/23 04:42:11;;;;;;;14.32;10.32;;;;;;;;;;5089128;28;20123;-72
2022/04/23 04:44:37;;;;;;;14.50;9.95;;;;;;;;;;5068979;28;20067;-71
2022/04/23 04:47:04;;;;;;;11.70;8.95;;;;;;;;;;5086044;28;20473;-72
2022/04/23 04:49:30;;;;;;;13.20;8.73;;;;;;;;;;5067976;28;20043;-72
2022/04/23 04:51:57;;;;;;;10.00;8.68;;;;;;;;;;5067798;28;20177;-71
2022/04/23 04:54:23;;;;;;;15.88;10.02;;;;;;;;;;5088302;28;20032;-72
2022/04/23 04:56:50;;;;;;;14.55;11.25;;;;;;;;;;5088767;28;20036;-72
2022/04/23 04:59:16;;;;;;;12.90;9.48;;;;;;;;;;5085764;28;20079;-71
2022/04/23 05:01:43;;;;;;;13.57;10.10;;;;;;;;;;5081971;28;20043;-72
2022/04/23 05:04:09;;;;;;;12.82;9.85;;;;;;;;;;5066948;28;20654;-72
2022/04/23 05:06:36;;;;;;;13.82;8.38;;;;;;;;;;5086881;28;20600;-72
2022/04/23 05:09:02;;;;;;;13.95;10.05;;;;;;;;;;5073484;28;20040;-72
2022/04/23 05:11:28;;;;;;;14.60;9.43;;;;;;;;;;5089498;28;20516;-72
2022/04/23 05:13:55;;;;;;;13.30;9.85;;;;;;;;;;5085120;28;20032;-71
2022/04/23 05:16:21;;;;;;;14.93;9.45;;;;;;;;;;5088801;28;20036;-72
2022/04/23 05:18:47;;;;;;;14.40;8.93;;;;;;;;;;5059532;28;20044;-72
2022/04/23 05:21:13;;;;;;;12.80;9.65;;;;;;;;;;5070996;28;20059;-71
2022/04/23 05:23:39;;;;;;;13.50;9.70;;;;;;;;;;5057462;28;20032;-72
2022/04/23 05:26:06;;;;;;;15.02;9.77;;;;;;;;;;5070377;28;20039;-71
2022/04/23 05:28:34;;;;;;;10.98;8.95;;;;;;;;;;5052575;28;20529;-72
2022/04/23 05:31:01;;;;;;;13.02;10.50;;;;;;;;;;5053053;28;20490;-72
2022/04/23 05:33:27;;;;;;;10.85;8.38;;;;;;;;;;5064318;28;20066;-71
2022/04/23 05:35:53;;;;;;;12.57;10.18;;;;;;;;;;5078248;28;20032;-71
2022/04/23 05:38:20;;;;;;;14.27;9.27;;;;;;;;;;5067024;28;20388;-71
2022/04/23 05:40:46;;;;;;;12.25;10.43;;;;;;;;;;5063520;28;20516;-71
2022/04/23 05:43:12;;;;;;;12.60;9.70;;;;;;;;;;5084736;28;20501;-72
2022/04/23 05:45:38;;;;;;;13.82;9.80;;;;;;;;;;5048536;28;20097;-72
2022/04/23 05:48:05;;;;;;;13.77;9.75;;;;;;;;;;5065931;28;20059;-72
2022/04/23 05:50:31;;;;;;;12.23;8.88;;;;;;;;;;5081529;28;20380;-71
2022/04/23 05:52:57;;;;;;;12.55;9.77;;;;;;;;;;5080170;28;20048;-71
2022/04/23 05:55:24;;;;;;;12.23;9.48;;;;;;;;;;5064163;28;20036;-72
2022/04/23 05:57:50;;;;;;;14.90;10.00;;;;;;;;;;5064806;28;20044;-72
2022/04/23 06:00:17;;;;;;;10.05;8.93;;;;;;;;;;5071470;28;20055;-71
2022/04/23 06:02:43;;;;;;;11.73;9.65;;;;;;;;;;5051079;28;20119;-72
2022/04/23 06:05:10;;;;;;;13.70;9.38;;;;;;;;;;5055696;28;20044;-72
2022/04/23 06:07:37;;;;;;;12.50;10.35;;;;;;;;;;5084112;28;20501;-72
2022/04/23 06:10:03;;;;;;;13.05;9.35;;;;;;;;;;5034832;28;20093;-72
2022/04/23 06:12:31;;;;;;;12.23;10.05;;;;;;;;;;5067592;28;20036;-71
2022/04/23 06:14:58;;;;;;;11.68;9.55;;;;;;;;;;5064348;28;20105;-72
2022/04/23 06:17:25;;;;;;;11.50;8.95;;;;;;;;;;5086377;28;20101;-72
2022/04/23 06:19:52;;;;;;;12.05;9.65;;;;;;;;;;5067267;28;20040;-72
2022/04/23 06:22:19;;;;;;;10.60;7.93;;;;;;;;;;5068363;28;20040;-73
2022/04/23 06:24:45;;;;;;;13.93;9.55;;;;;;;;;;5068538;28;20048;-72
2022/04/23 06:27:11;;;;;;;12.98;10.18;;;;;;;;;;5086572;28;20036;-72
2022/04/23 06:29:39;;;;;;;10.98;8.73;;;;;;;;;;5068569;28;20047;-72
2022/04/23 06:32:05;;;;;;;12.70;8.82;;;;;;;;;;5067685;28;20087;-72
2022/04/23 06:34:33;;;;;;;14.90;8.95;;;;;;;;;;5085379;28;20036;-72
2022/04/23 06:37:00;;;;;;;13.80;8.77;;;;;;;;;;5071180;28;20067;-71
2022/04/23 06:39:26;;;;;;;11.48;9.75;;;;;;;;;;5053050;28;20173;-72
2022/04/23 06:41:52;;;;;;;10.60;8.90;;;;;;;;;;5073642;28;20032;-72
2022/04/23 06:44:18;;;;;;;11.57;9.27;;;;;;;;;;5065773;28;20035;-71
2022/04/23 06:46:45;;;;;;;11.73;9.50;;;;;;;;;;5079035;28;20116;-72
2022/04/23 06:49:11;;;;;;;10.98;8.48;;;;;;;;;;5057669;28;20486;-72
2022/04/23 06:51:37;;;;;;;15.73;9.93;;;;;;;;;;5066225;28;20048;-72
2022/04/23 06:54:04;;;;;;;12.82;9.30;;;;;;;;;;5078178;28;20039;-72
2022/04/23 06:56:31;;;;;;;13.60;9.73;;;;;;;;;;5082951;28;20806;-72
2022/04/23 06:58:58;;;;;;;12.40;8.85;;;;;;;;;;5077061;28;20075;-72
2022/04/23 07:01:24;;;;;;;13.75;8.82;;;;;;;;;;5044540;28;20413;-72
2022/04/23 07:03:50;;;;;;;13.25;9.05;;;;;;;;;;5077748;28;20693;-72
2022/04/23 07:06:16;;;;;;;11.95;9.18;;;;;;;;;;5063869;28;20066;-71
2022/04/23 07:08:44;;;;;;;14.77;9.45;;;;;;;;;;5065365;28;20036;-71
2022/04/23 07:11:10;;;;;;;12.63;10.10;;;;;;;;;;5070966;28;20049;-72
2022/04/23 07:13:38;;;;;;;11.38;9.00;;;;;;;;;;5057863;28;20040;-71
2022/04/23 07:16:04;;;;;;;12.38;9.13;;;;;;;;;;5060745;28;20036;-72
2022/04/23 07:18:35;;;;;;;15.18;9.23;;;;;;;;;;5058612;28;20051;-71
2022/04/23 07:21:01;;;;;;;12.98;8.48;;;;;;;;;;5045405;28;20315;-71
2022/04/23 07:26:12;;;;;;;12.57;9.55;;;;;;;;;;5070961;28;20083;-72
2022/04/23 07:28:39;;;;;;;14.63;9.48;;;;;;;;;;5070665;28;20400;-71
2022/04/23 07:31:05;;;;;;;14.27;9.23;;;;;;;;;;5070391;28;20039;-71
2022/04/23 07:39:02;;;;;;;12.30;9.80;;;;;;;;;;5074254;28;20072;-71
2022/04/23 07:41:28;;;;;;;13.45;8.43;;;;;;;;;;5066958;28;20431;-71
2022/04/23 07:43:55;;;;;;;14.73;10.55;;;;;;;;;;5070855;28;20036;-71
2022/04/23 07:46:21;;;;;;;14.35;9.32;;;;;;;;;;5086552;28;20471;-71
2022/04/23 07:48:47;;;;;;;9.45;8.45;;;;;;;;;;5084023;28;20045;-71
2022/04/23 07:51:14;;;;;;;13.10;9.93;;;;;;;;;;5058454;28;20044;-71
2022/04/23 07:53:40;;;;;;;13.80;9.73;;;;;;;;;;5068315;28;20041;-71
2022/04/23 07:56:06;;;;;;;13.80;8.63;;;;;;;;;;5069987;28;20090;-71
2022/04/23 07:58:32;;;;;;;14.13;8.75;;;;;;;;;;5064525;28;20074;-71
2022/04/23 08:00:58;;;;;;;13.32;9.65;;;;;;;;;;5071939;28;20063;-71
2022/04/23 08:03:24;;;;;;;20.15;9.00;;;;;;;;;;5060323;28;20422;-71
2022/04/23 08:05:51;;;;;;;13.85;9.05;;;;;;;;;;5087423;28;20394;-72
2022/04/23 08:08:17;;;;;;;11.45;8.80;;;;;;;;;;5069502;28;20032;-72
2022/04/23 08:10:47;;;;;;;9.95;8.07;;;;;;;;;;5060304;28;20051;-72
2022/04/23 08:13:13;;;;;;;12.90;8.20;;;;;;;;;;5059736;28;20037;-72
2022/04/23 08:15:39;;;;;;;13.40;8.07;;;;;;;;;;5069024;28;20190;-72
2022/04/23 08:18:06;;;;;;;16.45;10.05;;;;;;;;;;5072144;28;20071;-72
2022/04/23 08:20:32;;;;;;;14.38;9.90;;;;;;;;;;5062210;28;20133;-72
2022/04/23 08:22:59;;;;;;;11.63;8.13;;;;;;;;;;5078293;28;20033;-72
2022/04/23 08:25:25;;;;;;;10.77;8.35;;;;;;;;;;5069781;28;20474;-72
2022/04/23 08:27:52;;;;;;;11.85;8.85;;;;;;;;;;5066506;28;20463;-70
2022/04/23 08:30:37;;;;;;;13.45;8.90;;;;;;;;;;5071980;28;20678;-70
2022/04/23 08:33:03;;;;;;;12.55;8.95;;;;;;;;;;5068046;28;20079;-70
2022/04/23 08:35:29;;;;;;;13.32;8.65;;;;;;;;;;5066116;28;20537;-70
2022/04/23 08:37:55;;;;;;;11.13;8.68;;;;;;;;;;5084647;28;20502;-70
2022/04/23 08:40:22;;;;;;;13.52;8.90;;;;;;;;;;5062933;28;20047;-70
2022/04/23 08:42:48;;;;;;;14.38;8.50;;;;;;;;;;5065892;28;20079;-70
2022/04/23 08:45:14;;;;;;;13.70;8.48;;;;;;;;;;5066721;28;20048;-70
2022/04/23 08:47:46;;;;;;;9.75;8.23;;;;;;;;;;5056817;28;20044;-70
2022/04/23 08:50:12;;;;;;;14.63;9.15;;;;;;;;;;5069878;28;20115;-71
2022/04/23 08:52:41;;;;;;;13.50;9.07;;;13.10;86.70;;;;;;5087999;28;20065;-71
2022/04/23 08:55:08;;;;;;;11.98;6.90;;;13.60;95.60;;;;;;5056294;28;20040;-71
2022/04/23 08:57:37;;;;;;;13.02;8.90;;;13.50;95.70;;;;;;5081334;28;20078;-71
2022/04/23 09:00:08;;;;;;;10.05;7.82;;;13.60;95.40;;;;;;5081893;28;20048;-71
2022/04/23 09:02:35;;;;;;;11.63;8.15;;;13.60;95.10;;;;;;5075596;28;20129;-71
2022/04/23 09:05:02;;;;;;;13.48;8.77;;;;;;;;;;5064640;28;20101;-70
2022/04/23 09:07:29;;;;;;;11.45;8.55;;;;;;;;;;5074319;28;20044;-71
2022/04/23 09:09:56;;;;;;;14.23;9.20;;;;;;;;;;5053150;28;20173;-70
2022/04/23 09:12:26;;;;;;;12.75;8.93;;;;;;;;;;5082516;28;20051;-71
2022/04/23 09:14:54;;;;;;;14.50;8.18;;;;;;;;;;5067197;28;20036;-71
2022/04/23 09:25:57;;;;;;;10.00;8.73;;;;;;;;;;5048009;28;20139;-70
2022/04/23 09:28:24;;;;;;;10.20;9.00;;;;;;;;;;5070809;28;20047;-70
2022/04/23 09:30:51;;;;;;;12.40;8.70;;;;;;;;;;5059189;28;20051;-71
2022/04/23 09:33:17;;;;;;;12.20;8.65;;;;;;;;;;5059415;28;20048;-71
2022/04/23 09:36:01;;;;;;;11.13;8.98;;;;;;;;;;5068663;28;20127;-71
2022/04/23 09:38:28;;;;;;;11.00;8.38;;;;;;;;;;5057232;28;20497;-71
2022/04/23 09:40:55;;;;;;;10.30;8.65;;;;;;;;;;5076261;28;20529;-71
2022/04/23 09:43:26;;;;;;;9.07;7.97;;;;;;;;;;5087035;28;20035;-70
2022/04/23 09:46:08;;;;;;;11.55;8.25;;;;;;;;;;5074638;28;20409;-70
2022/04/23 09:48:35;;;;;;;10.00;8.40;;;;;;;;;;5035499;28;20037;-71
2022/04/23 09:51:01;;;;;;;9.45;8.43;;;;;;;;;;5064863;28;20406;-70
2022/04/23 09:53:28;;;;;;;9.82;8.57;;;;;;;;;;5058054;28;20047;-71
2022/04/23 09:55:59;;;;;;;15.52;9.30;;;;;;;;;;5083136;28;20040;-71
2022/04/23 09:58:26;;;;;;;13.73;8.20;;;;;;;;;;5077418;28;20502;-70
2022/04/23 10:00:53;;;;;;;11.35;9.90;;;;;;;;;;5070147;28;20040;-70
2022/04/23 10:03:20;;;;;;;10.73;9.00;;;;;;;;;;5066204;28;20047;-70
2022/04/23 10:05:47;;;;;;;10.85;8.50;;;;;;;;;;5064407;28;20050;-71
2022/04/23 10:08:17;;;;;;;14.10;8.32;;;;;;;;;;5084850;28;20608;-70
2022/04/23 10:11:04;;;;;;;13.38;9.18;;;;;;;;;;5081481;28;20097;-70
2022/04/23 10:13:30;;;;;;;11.25;9.23;;;;;;;;;;5081176;28;20036;-70
2022/04/23 10:16:03;;;;;;;10.82;8.60;;;;;;;;;;5053185;28;20067;-70
2022/04/23 10:18:29;;;;;;;11.40;9.48;;;;;;;;;;5066969;28;20042;-70
2022/04/23 10:21:04;;;;;;;11.40;8.63;;;;;;;;;;5085042;28;20039;-70
2022/04/23 10:23:49;;;;;;;13.30;9.32;;;;;;;;;;5063220;28;20036;-70
2022/04/23 10:26:34;;;;;;;13.10;9.43;;;;;;;;;;5067077;28;20044;-71
2022/04/23 10:29:02;;;;;;;10.52;8.20;;;;;;;;;;5084644;28;20040;-71
2022/04/23 10:31:28;;;;;;;11.02;8.32;;;;;;;;;;5063176;28;20037;-70
2022/04/23 10:33:55;;;;;;;11.82;8.80;;;;;;;;;;5083812;28;20101;-71
2022/04/23 10:36:21;;;;;;;10.68;8.52;;;;;;;;;;5067808;28;20040;-70
2022/04/23 10:38:51;;;;;;;12.82;9.23;;;;;;;;;;5065059;28;20040;-70
2022/04/23 10:41:21;;;;;;;11.43;8.95;;;;;;;;;;5085303;28;20039;-71
2022/04/23 10:43:48;;;;;;;12.02;8.60;;;;;;;;;;5081235;28;20115;-70
2022/04/23 10:46:33;;;;;;;10.98;8.20;;;;;;;;;;5078337;28;20430;-70
2022/04/23 10:49:15;;;;;;;13.85;9.13;;;;;;;;;;5066293;28;20044;-70
2022/04/23 10:51:45;;;;;;;12.40;8.90;;;;;;;;;;5076274;28;20036;-70
2022/04/23 10:54:11;;;;;;;11.77;8.38;;;;;;;;;;5083319;28;20039;-70
2022/04/23 10:56:37;;;;;;;13.13;8.32;;;;;;;;;;5066450;28;20044;-70
2022/04/23 10:59:04;;;;;;;12.40;8.43;;;;;;;;;;5088833;28;20127;-70
2022/04/23 11:01:31;;;;;;;8.80;6.68;;;;;;;;;;5072080;28;20125;-69
2022/04/23 11:03:57;;;;;;;11.85;7.97;;;;;;;;;;5065900;28;20055;-70
2022/04/23 11:12:23;;;;;;;10.18;7.68;;;;;;;;;;5061417;28;20044;-70
2022/04/23 11:14:53;;;;;;;9.20;7.82;;;;;;;;;;5085478;28;20044;-70
2022/04/23 11:17:23;;;;;;;10.65;7.80;;;;;;;;;;5070600;28;20085;-70
2022/04/23 11:19:53;;;;;;;11.95;8.20;;;;;;;;;;5068945;28;20044;-70
2022/04/23 11:22:23;;;;;;;10.18;8.05;;;;;;;;;;5071182;28;20125;-70
2022/04/23 11:24:53;;;;;;;12.90;7.75;;;;;;;;;;5059080;28;20047;-70
2022/04/23 11:27:25;;;;;;;9.77;8.45;;;;;;;;;;5091043;28;20235;-71
2022/04/23 11:29:55;;;;;;;9.88;6.78;;;;;;;;;;5070235;28;20032;-70
2022/04/23 11:32:26;;;;;;;16.23;7.53;;;;;;;;;;5065146;28;20048;-70
2022/04/23 11:34:56;;;;;;;8.45;7.20;;;;;;;;;;5069554;28;20648;-70
2022/04/23 11:37:32;;;;;;;8.95;6.32;;;;;;;;;;5069526;28;20482;-70
2022/04/23 11:40:04;;;;;;;8.85;6.38;;;;;;;;;;5085332;28;20424;-71
2022/04/23 11:42:40;;;;;;;9.85;6.70;;;;;;;;;;5052466;28;20097;-70
2022/04/23 11:45:07;;;;;;;7.72;6.55;;;;;;;;;;5064159;28;20056;-71
2022/04/23 11:47:33;;;;;;;10.18;7.32;;;;;;;;;;5065337;28;20405;-71
2022/04/23 11:50:15;;;;;;;10.15;7.28;;;;;;;;;;5049337;28;20052;-71
2022/04/23 11:53:01;;;;;;;10.45;6.35;;;;;;;;;;5065288;28;20052;-70
2022/04/23 11:55:28;;;;;;;10.15;7.28;;;;;;;;;;5086954;28;20043;-69
2022/04/23 11:57:55;;;;;;;12.73;7.10;;;;;;;;;;5083404;28;20055;-70
2022/04/23 12:00:22;;;;;;;7.93;6.13;;;;;;;;;;5081571;28;20204;-70
2022/04/23 12:02:48;;;;;;;10.05;6.38;;;;;;;;;;5085066;28;20405;-69
2022/04/23 12:05:22;;;;;;;8.18;6.50;;;;;;;;;;5049787;28;20059;-70
2022/04/23 12:07:48;;;;;;;11.32;6.35;;;;;;;;;;5085897;28;20295;-69
2022/04/23 12:10:14;;;;;;;8.48;6.35;;;;;;;;;;5067728;28;20036;-70
2022/04/23 12:12:42;;;;;;;9.07;5.93;;;;;;;;;;5088346;28;20043;-70
2022/04/23 12:15:11;;;;;;;10.63;6.53;;;;;;;;;;5085399;28;20409;-69
2022/04/23 12:17:47;;;;;;;9.70;7.20;;;;;;;;;;5068200;28;20120;-69
2022/04/23 12:20:14;;;;;;;8.25;6.88;;;;;;;;;;5066617;28;20047;-69
2022/04/23 12:22:41;;;;;;;8.77;6.68;;;;;;;;;;5086214;28;20127;-69
2022/04/23 12:25:16;;;;;;;6.85;6.13;;;;;;;;;;5066678;28;20043;-70
2022/04/23 12:27:56;;;;;;;9.98;7.40;;;;;;;;;;5070578;28;20180;-70
2022/04/23 12:41:40;;;;;;;10.55;6.47;;;;;;;;;;5069271;28;20401;-70
2022/04/23 12:44:16;;;;;;;8.68;6.93;;;;;;;;;;5069541;28;20538;-70
2022/04/23 12:47:01;;;;;;;8.10;6.13;;;;;;;;;;5075901;28;20084;-71
2022/04/23 12:50:03;;;;;;;10.75;6.88;;;;;;;;;;5068375;28;20578;-70
2022/04/23 12:52:31;;;;;;;9.93;6.18;;;;;;;;;;5005402;28;20115;-70
2022/04/23 12:55:13;;;;;;;7.90;6.22;;;;;;;;;;5057281;28;20056;-70
2022/04/23 12:57:43;;;;;;;12.88;5.80;;;;;;;;;;5070965;28;20066;-70
2022/04/23 13:00:11;;;;;;;7.43;5.20;;;;;;;;;;5057687;28;20052;-70
2022/04/23 13:02:38;;;;;;;9.68;6.57;;;;;;;;;;5077782;28;20154;-71
2022/04/23 13:05:05;;;;;;;7.47;4.85;;;;;;;;;;5084779;28;20079;-70
2022/04/23 13:10:16;;;;;;;7.90;6.60;;;;;;;;;;5065318;28;20048;-70
2022/04/23 13:12:43;;;;;;;6.75;5.30;;;;;;;;;;5079561;28;20031;-71
2022/04/23 13:15:09;;;;;;;7.93;5.60;;;;;;;;;;5060686;28;20112;-71
2022/04/23 13:17:38;;;;;;;12.30;5.68;;;;;;;;;;5089524;28;20028;-70
2022/04/23 13:20:06;;;;;;;9.68;6.03;;;;;;;;;;5069430;28;20044;-70
2022/04/23 13:22:33;;;;;;;12.23;6.00;;;;;;;;;;5085282;28;20036;-67
2022/04/23 13:24:59;;;;;;;8.68;5.90;;;;;;;;;;5069094;28;20077;-70
2022/04/23 13:27:25;;;;;;;23.73;6.25;;;;;;;;;;5070247;28;20044;-70
2022/04/23 13:29:55;;;;;;;8.93;5.50;;;;;;;;;;5068469;28;20493;-70
2022/04/23 13:32:21;;;;;;;6.88;5.93;;;;;;;;;;5086443;28;20036;-70
2022/04/23 13:34:47;;;;;;;8.90;5.30;;;;;;;;;;5062654;28;20120;-70
2022/04/23 13:37:13;;;;;;;11.02;6.32;;;;;;;;;;5078361;28;20044;-70
2022/04/23 13:39:39;;;;;;;10.13;5.93;;;;;;;;;;5064317;28;20093;-71
2022/04/23 13:42:06;;;;;;;5.65;4.95;;;;;;;;;;5044900;28;20525;-70
2022/04/23 13:44:32;;;;;;;10.25;5.80;;;;;;;;;;5083363;28;20466;-70
2022/04/23 13:46:59;;;;;;;9.75;4.78;;;;;;;;;;5060033;28;20036;-70
2022/04/23 13:49:25;;;;;;;6.75;5.00;;;;;;;;;;5075225;28;20076;-71
2022/04/23 13:51:52;;;;;;;7.13;5.53;;;;;;;;;;5074016;28;20044;-72
2022/04/23 13:54:19;;;;;;;7.65;5.35;;;;;;;;;;5053087;28;20079;-73
2022/04/23 13:56:45;;;;;;;11.65;5.45;;;;;;;;;;5056303;28;20532;-72
2022/04/23 13:59:11;;;;;;;7.88;5.72;;;;;;;;;;5075031;28;20438;-72
2022/04/23 14:01:40;;;;;;;6.85;5.03;;;;;;;;;;5066158;28;20040;-71
2022/04/23 14:12:21;;;;;;;7.75;4.72;;;;;;;;;;5068686;28;20076;-72
2022/04/23 14:14:47;;;;;;;10.05;4.93;;;;;;;;;;5043025;28;20044;-72
2022/04/23 14:17:13;;;;;;;5.57;4.95;;;;;;;;;;5070106;28;20041;-70
2022/04/23 14:19:40;;;;;;;7.00;5.18;;;;;;;;;;5081021;28;20393;-67
2022/04/23 14:22:06;;;;;;;9.40;4.70;;;;;;;;;;5082939;28;20394;-67
2022/04/23 14:24:32;;;;;;;7.80;4.60;;;;;;;;;;5066811;28;20046;-66
2022/04/23 14:26:58;;;;;;;8.23;3.95;;;;;;;;;;5088337;28;20032;-69
2022/04/23 14:29:24;;;;;;;7.43;4.50;;;;;;;;;;5065723;28;20488;-70
2022/04/23 14:31:50;;;;;;;9.50;4.90;;;;;;;;;;5069319;28;20679;-71
2022/04/23 14:34:17;;;;;;;7.95;4.63;;;;;;;;;;5080322;28;20113;-70
2022/04/23 14:36:43;;;;;;;7.40;4.43;;;;;;;;;;5072989;28;20036;-68
2022/04/23 14:39:09;;;;;;;7.10;4.57;;;;;;;;;;5088180;28;20040;-68
2022/04/23 14:41:35;;;;;;;7.55;4.70;;;;;;;;;;5085833;28;20037;-70
2022/04/23 14:44:01;;;;;;;6.60;4.20;;;;;;;;;;5085628;28;20764;-70
2022/04/23 14:46:28;;;;;;;7.10;4.00;;;;;;;;;;5081642;28;20041;-70
2022/04/23 14:48:55;;;;;;;7.63;3.92;;;;;;;;;;5087433;28;20585;-70
2022/04/23 14:54:06;;;;;;;7.20;3.72;;;;;;;;;;5071898;28;20044;-71
2022/04/23 14:56:33;;;;;;;5.78;4.07;;;;;;;;;;5073401;28;20070;-71
2022/04/23 14:59:00;;;;;;;8.65;3.90;;;;;;;;;;5085526;28;20057;-70
2022/04/23 15:01:27;;;;;;;9.02;5.07;;;;;;;;;;5072059;28;20078;-67
2022/04/23 15:03:53;;;;;;;8.90;3.75;;;;;;;;;;5070480;28;20040;-70
2022/04/23 15:06:21;;;;;;;7.38;4.18;;;;;;;;;;5088940;28;20032;-70
2022/04/23 15:08:47;;;;;;;7.28;4.03;;;;;;;;;;5069883;28;20044;-70
2022/04/23 15:11:14;;;;;;;12.43;4.43;;;;;;;;;;5084119;28;20654;-69
2022/04/23 15:13:40;;;;;;;9.75;3.58;;;;;;;;;;5057910;28;20444;-70
2022/04/23 15:16:07;;;;;;;5.47;4.07;;;;;;;;;;5090501;28;20697;-68
2022/04/23 15:18:33;;;;;;;5.00;4.00;;;;;;;;;;5075094;28;20051;-69
2022/04/23 15:20:59;;;;;;;6.85;3.47;;;;;;;;;;5074784;28;20043;-69